sensor_id;sensor_type;location;lat;lon;timestamp;P1;durP1;ratioP1;P2;durP2;ratioP2
64426;SDS011;50772;51.482;-0.580;2022-09-02T00:00:29;3.23;;;3.00;;
64426;SDS011;50772;51.482;-0.580;2022-09-02T00:02:56;3.78;;;3.58;;
64426;SDS011;50772;51.482;-0.580;2022-09-02T00:05:21;3.20;;;3.00;;
64426;SDS011;50772;51.482;-0.580;2022-09-02T00:07:46;3.73;;;3.13;;
64426;SDS011;50772;51.482;-0.580;2022-09-02T00:10:11;4.17;;;3.60;;
64426;SDS011;50772;51.482;-0.580;2022-09-02T00:12:37;5.95;;;3.45;;
64426;SDS011;50772;51.482;-0.580;2022-09-02T00:15:02;6.43;;;2.93;;
64426;SDS011;50772;51.482;-0.580;2022-09-02T00:17:27;7.35;;;3.65;;
64426;SDS011;50772;51.482;-0.580;2022-09-02T00:19:53;3.63;;;3.33;;
64426;SDS011;50772;51.482;-0.580;2022-09-02T00:22:18;4.22;;;3.30;;
64426;SDS011;50772;51.482;-0.580;2022-09-02T00:24:43;3.53;;;3.23;;
64426;SDS011;50772;51.482;-0.580;2022-09-02T00:27:08;10.67;;;3.57;;
64426;SDS011;50772;51.482;-0.580;2022-09-02T00:29:34;3.87;;;3.23;;
64426;SDS011;50772;51.482;-0.580;2022-09-02T00:31:59;4.10;;;3.70;;
64426;SDS011;50772;51.482;-0.580;2022-09-02T00:34:24;4.00;;;3.57;;
64426;SDS011;50772;51.482;-0.580;2022-09-02T00:36:49;3.58;;;3.28;;
64426;SDS011;50772;51.482;-0.580;2022-09-02T00:39:14;4.27;;;3.47;;
64426;SDS011;50772;51.482;-0.580;2022-09-02T00:41:40;3.63;;;3.33;;
64426;SDS011;50772;51.482;-0.580;2022-09-02T00:44:07;6.53;;;3.22;;
64426;SDS011;50772;51.482;-0.580;2022-09-02T00:46:33;3.47;;;3.17;;
64426;SDS011;50772;51.482;-0.580;2022-09-02T00:49:13;4.05;;;3.55;;
64426;SDS011;50772;51.482;-0.580;2022-09-02T00:51:48;3.85;;;3.50;;
64426;SDS011;50772;51.482;-0.580;2022-09-02T00:54:15;3.60;;;3.30;;
64426;SDS011;50772;51.482;-0.580;2022-09-02T00:56:41;3.22;;;3.03;;
64426;SDS011;50772;51.482;-0.580;2022-09-02T00:59:07;5.65;;;2.85;;
64426;SDS011;50772;51.482;-0.580;2022-09-02T01:01:33;7.93;;;4.10;;
64426;SDS011;50772;51.482;-0.580;2022-09-02T01:03:59;5.27;;;3.33;;
64426;SDS011;50772;51.482;-0.580;2022-09-02T01:06:24;4.03;;;3.23;;
64426;SDS011;50772;51.482;-0.580;2022-09-02T01:08:51;5.47;;;3.53;;
64426;SDS011;50772;51.482;-0.580;2022-09-02T01:11:21;2.85;;;2.75;;
64426;SDS011;50772;51.482;-0.580;2022-09-02T01:13:46;4.93;;;2.90;;
64426;SDS011;50772;51.482;-0.580;2022-09-02T01:16:14;6.03;;;3.17;;
64426;SDS011;50772;51.482;-0.580;2022-09-02T01:18:41;5.80;;;3.35;;
64426;SDS011;50772;51.482;-0.580;2022-09-02T01:21:09;3.40;;;2.70;;
64426;SDS011;50772;51.482;-0.580;2022-09-02T01:23:34;2.92;;;2.72;;
64426;SDS011;50772;51.482;-0.580;2022-09-02T01:26:00;5.30;;;2.90;;
64426;SDS011;50772;51.482;-0.580;2022-09-02T01:28:26;3.70;;;2.85;;
64426;SDS011;50772;51.482;-0.580;2022-09-02T01:30:52;3.05;;;2.83;;
64426;SDS011;50772;51.482;-0.580;2022-09-02T01:33:18;3.40;;;2.90;;
64426;SDS011;50772;51.482;-0.580;2022-09-02T01:35:44;3.42;;;2.70;;
64426;SDS011;50772;51.482;-0.580;2022-09-02T01:38:09;3.05;;;2.88;;
64426;SDS011;50772;51.482;-0.580;2022-09-02T01:40:35;2.88;;;2.70;;
64426;SDS011;50772;51.482;-0.580;2022-09-02T01:43:04;3.38;;;3.17;;
64426;SDS011;50772;51.482;-0.580;2022-09-02T01:45:32;3.90;;;3.17;;
64426;SDS011;50772;51.482;-0.580;2022-09-02T01:47:57;3.00;;;2.80;;
64426;SDS011;50772;51.482;-0.580;2022-09-02T01:50:22;3.90;;;3.23;;
64426;SDS011;50772;51.482;-0.580;2022-09-02T01:52:47;3.53;;;2.83;;
64426;SDS011;50772;51.482;-0.580;2022-09-02T01:55:13;4.20;;;3.43;;
64426;SDS011;50772;51.482;-0.580;2022-09-02T01:57:38;3.22;;;2.85;;
64426;SDS011;50772;51.482;-0.580;2022-09-02T02:00:05;3.43;;;3.10;;
64426;SDS011;50772;51.482;-0.580;2022-09-02T02:02:30;3.75;;;2.97;;
64426;SDS011;50772;51.482;-0.580;2022-09-02T02:04:55;3.50;;;2.70;;
64426;SDS011;50772;51.482;-0.580;2022-09-02T02:07:21;6.50;;;2.90;;
64426;SDS011;50772;51.482;-0.580;2022-09-02T02:09:47;2.92;;;2.67;;
64426;SDS011;50772;51.482;-0.580;2022-09-02T02:12:12;4.28;;;3.05;;
64426;SDS011;50772;51.482;-0.580;2022-09-02T02:14:38;4.78;;;3.28;;
64426;SDS011;50772;51.482;-0.580;2022-09-02T02:17:03;4.47;;;2.97;;
64426;SDS011;50772;51.482;-0.580;2022-09-02T02:19:28;4.00;;;3.28;;
64426;SDS011;50772;51.482;-0.580;2022-09-02T02:21:54;6.13;;;3.03;;
64426;SDS011;50772;51.482;-0.580;2022-09-02T02:24:19;3.63;;;2.85;;
64426;SDS011;50772;51.482;-0.580;2022-09-02T02:26:44;2.80;;;2.70;;
64426;SDS011;50772;51.482;-0.580;2022-09-02T02:29:10;2.78;;;2.58;;
64426;SDS011;50772;51.482;-0.580;2022-09-02T02:31:35;4.72;;;2.78;;
64426;SDS011;50772;51.482;-0.580;2022-09-02T02:34:01;3.13;;;2.80;;
64426;SDS011;50772;51.482;-0.580;2022-09-02T02:36:27;4.20;;;3.03;;
64426;SDS011;50772;51.482;-0.580;2022-09-02T02:38:52;4.03;;;3.38;;
64426;SDS011;50772;51.482;-0.580;2022-09-02T02:41:17;6.30;;;3.25;;
64426;SDS011;50772;51.482;-0.580;2022-09-02T02:43:43;6.15;;;3.22;;
64426;SDS011;50772;51.482;-0.580;2022-09-02T02:46:08;3.17;;;2.77;;
64426;SDS011;50772;51.482;-0.580;2022-09-02T02:48:34;5.47;;;2.90;;
64426;SDS011;50772;51.482;-0.580;2022-09-02T02:50:59;4.22;;;2.63;;
64426;SDS011;50772;51.482;-0.580;2022-09-02T02:53:24;6.90;;;2.80;;
64426;SDS011;50772;51.482;-0.580;2022-09-02T02:55:49;4.50;;;3.77;;
64426;SDS011;50772;51.482;-0.580;2022-09-02T02:58:15;6.35;;;2.92;;
64426;SDS011;50772;51.482;-0.580;2022-09-02T03:00:40;3.40;;;2.90;;
64426;SDS011;50772;51.482;-0.580;2022-09-02T03:03:08;6.37;;;3.97;;
64426;SDS011;50772;51.482;-0.580;2022-09-02T03:05:34;3.45;;;3.15;;
64426;SDS011;50772;51.482;-0.580;2022-09-02T03:08:01;5.97;;;3.30;;
64426;SDS011;50772;51.482;-0.580;2022-09-02T03:10:27;3.42;;;2.70;;
64426;SDS011;50772;51.482;-0.580;2022-09-02T03:12:52;3.42;;;3.13;;
64426;SDS011;50772;51.482;-0.580;2022-09-02T03:15:18;7.25;;;3.30;;
64426;SDS011;50772;51.482;-0.580;2022-09-02T03:17:44;7.00;;;3.03;;
64426;SDS011;50772;51.482;-0.580;2022-09-02T03:20:10;5.18;;;3.15;;
64426;SDS011;50772;51.482;-0.580;2022-09-02T03:22:35;3.47;;;3.00;;
64426;SDS011;50772;51.482;-0.580;2022-09-02T03:25:04;5.07;;;2.90;;
64426;SDS011;50772;51.482;-0.580;2022-09-02T03:27:29;4.03;;;2.90;;
64426;SDS011;50772;51.482;-0.580;2022-09-02T03:29:54;3.77;;;2.77;;
64426;SDS011;50772;51.482;-0.580;2022-09-02T03:32:20;3.58;;;2.63;;
64426;SDS011;50772;51.482;-0.580;2022-09-02T03:34:45;4.10;;;3.13;;
64426;SDS011;50772;51.482;-0.580;2022-09-02T03:37:11;4.80;;;2.80;;
64426;SDS011;50772;51.482;-0.580;2022-09-02T03:39:37;3.93;;;3.03;;
64426;SDS011;50772;51.482;-0.580;2022-09-02T03:42:03;4.07;;;2.80;;
64426;SDS011;50772;51.482;-0.580;2022-09-02T03:44:29;3.17;;;2.88;;
64426;SDS011;50772;51.482;-0.580;2022-09-02T03:46:54;7.13;;;3.00;;
64426;SDS011;50772;51.482;-0.580;2022-09-02T03:49:19;8.63;;;2.93;;
64426;SDS011;50772;51.482;-0.580;2022-09-02T03:51:44;3.57;;;3.27;;
64426;SDS011;50772;51.482;-0.580;2022-09-02T03:54:09;5.87;;;2.80;;
64426;SDS011;50772;51.482;-0.580;2022-09-02T03:56:35;6.57;;;3.17;;
64426;SDS011;50772;51.482;-0.580;2022-09-02T03:59:00;5.53;;;3.28;;
64426;SDS011;50772;51.482;-0.580;2022-09-02T04:01:26;3.85;;;2.72;;
64426;SDS011;50772;51.482;-0.580;2022-09-02T04:03:52;3.70;;;3.10;;
64426;SDS011;50772;51.482;-0.580;2022-09-02T04:06:18;3.20;;;2.90;;
64426;SDS011;50772;51.482;-0.580;2022-09-02T04:08:44;6.78;;;3.25;;
64426;SDS011;50772;51.482;-0.580;2022-09-02T04:11:11;8.93;;;3.13;;
64426;SDS011;50772;51.482;-0.580;2022-09-02T04:13:38;2.85;;;2.53;;
64426;SDS011;50772;51.482;-0.580;2022-09-02T04:16:08;5.67;;;2.97;;
64426;SDS011;50772;51.482;-0.580;2022-09-02T04:18:33;3.28;;;2.80;;
64426;SDS011;50772;51.482;-0.580;2022-09-02T04:20:59;4.97;;;3.10;;
64426;SDS011;50772;51.482;-0.580;2022-09-02T04:23:24;3.47;;;3.17;;
64426;SDS011;50772;51.482;-0.580;2022-09-02T04:25:49;3.70;;;3.13;;
64426;SDS011;50772;51.482;-0.580;2022-09-02T04:28:15;7.65;;;3.40;;
64426;SDS011;50772;51.482;-0.580;2022-09-02T04:30:41;5.18;;;3.35;;
64426;SDS011;50772;51.482;-0.580;2022-09-02T04:33:06;10.25;;;3.05;;
64426;SDS011;50772;51.482;-0.580;2022-09-02T04:35:31;8.37;;;4.57;;
64426;SDS011;50772;51.482;-0.580;2022-09-02T04:37:56;4.70;;;3.17;;
64426;SDS011;50772;51.482;-0.580;2022-09-02T04:40:22;8.27;;;3.15;;
64426;SDS011;50772;51.482;-0.580;2022-09-02T04:42:48;5.38;;;3.13;;
64426;SDS011;50772;51.482;-0.580;2022-09-02T04:45:13;5.03;;;3.25;;
64426;SDS011;50772;51.482;-0.580;2022-09-02T04:47:39;3.60;;;3.30;;
64426;SDS011;50772;51.482;-0.580;2022-09-02T04:50:04;3.43;;;2.90;;
64426;SDS011;50772;51.482;-0.580;2022-09-02T04:52:30;6.55;;;2.85;;
64426;SDS011;50772;51.482;-0.580;2022-09-02T04:54:55;4.00;;;2.85;;
64426;SDS011;50772;51.482;-0.580;2022-09-02T04:57:20;8.23;;;3.00;;
64426;SDS011;50772;51.482;-0.580;2022-09-02T04:59:46;6.28;;;3.80;;
64426;SDS011;50772;51.482;-0.580;2022-09-02T05:02:11;7.25;;;2.90;;
64426;SDS011;50772;51.482;-0.580;2022-09-02T05:04:36;8.67;;;3.27;;
64426;SDS011;50772;51.482;-0.580;2022-09-02T05:07:02;7.00;;;3.20;;
64426;SDS011;50772;51.482;-0.580;2022-09-02T05:09:28;5.93;;;3.42;;
64426;SDS011;50772;51.482;-0.580;2022-09-02T05:11:53;4.80;;;2.97;;
64426;SDS011;50772;51.482;-0.580;2022-09-02T05:14:21;4.93;;;2.83;;
64426;SDS011;50772;51.482;-0.580;2022-09-02T05:16:47;4.55;;;2.90;;
64426;SDS011;50772;51.482;-0.580;2022-09-02T05:19:13;3.33;;;2.97;;
64426;SDS011;50772;51.482;-0.580;2022-09-02T05:21:42;4.18;;;2.75;;
64426;SDS011;50772;51.482;-0.580;2022-09-02T05:24:08;5.43;;;2.83;;
64426;SDS011;50772;51.482;-0.580;2022-09-02T05:26:33;4.22;;;3.28;;
64426;SDS011;50772;51.482;-0.580;2022-09-02T05:28:59;4.03;;;2.80;;
64426;SDS011;50772;51.482;-0.580;2022-09-02T05:31:25;3.40;;;2.80;;
64426;SDS011;50772;51.482;-0.580;2022-09-02T05:33:52;6.72;;;2.90;;
64426;SDS011;50772;51.482;-0.580;2022-09-02T05:36:18;5.10;;;3.13;;
64426;SDS011;50772;51.482;-0.580;2022-09-02T05:38:44;4.00;;;2.70;;
64426;SDS011;50772;51.482;-0.580;2022-09-02T05:41:14;5.50;;;2.88;;
64426;SDS011;50772;51.482;-0.580;2022-09-02T05:46:05;7.38;;;2.58;;
64426;SDS011;50772;51.482;-0.580;2022-09-02T05:48:32;5.72;;;2.97;;
64426;SDS011;50772;51.482;-0.580;2022-09-02T05:51:16;6.05;;;2.88;;
64426;SDS011;50772;51.482;-0.580;2022-09-02T05:53:41;4.30;;;3.17;;
64426;SDS011;50772;51.482;-0.580;2022-09-02T05:56:06;6.83;;;2.97;;
64426;SDS011;50772;51.482;-0.580;2022-09-02T05:58:32;7.68;;;3.15;;
64426;SDS011;50772;51.482;-0.580;2022-09-02T06:00:57;9.30;;;2.90;;
64426;SDS011;50772;51.482;-0.580;2022-09-02T06:03:22;3.55;;;2.75;;
64426;SDS011;50772;51.482;-0.580;2022-09-02T06:05:57;4.03;;;3.13;;
64426;SDS011;50772;51.482;-0.580;2022-09-02T06:08:23;4.57;;;3.72;;
64426;SDS011;50772;51.482;-0.580;2022-09-02T06:10:48;4.40;;;3.28;;
64426;SDS011;50772;51.482;-0.580;2022-09-02T06:13:13;6.57;;;3.10;;
64426;SDS011;50772;51.482;-0.580;2022-09-02T06:15:42;6.78;;;2.97;;
64426;SDS011;50772;51.482;-0.580;2022-09-02T06:18:08;3.28;;;2.97;;
64426;SDS011;50772;51.482;-0.580;2022-09-02T06:20:33;6.65;;;3.13;;
64426;SDS011;50772;51.482;-0.580;2022-09-02T06:22:59;7.18;;;3.17;;
64426;SDS011;50772;51.482;-0.580;2022-09-02T06:25:24;4.97;;;3.13;;
64426;SDS011;50772;51.482;-0.580;2022-09-02T06:27:49;3.33;;;3.03;;
64426;SDS011;50772;51.482;-0.580;2022-09-02T06:30:14;5.57;;;3.37;;
64426;SDS011;50772;51.482;-0.580;2022-09-02T06:32:39;6.77;;;2.87;;
64426;SDS011;50772;51.482;-0.580;2022-09-02T06:35:05;9.80;;;3.50;;
64426;SDS011;50772;51.482;-0.580;2022-09-02T06:37:32;3.20;;;2.90;;
64426;SDS011;50772;51.482;-0.580;2022-09-02T06:39:57;5.97;;;2.90;;
64426;SDS011;50772;51.482;-0.580;2022-09-02T06:42:23;3.90;;;3.07;;
64426;SDS011;50772;51.482;-0.580;2022-09-02T06:44:48;6.28;;;3.30;;
64426;SDS011;50772;51.482;-0.580;2022-09-02T06:47:13;3.60;;;3.17;;
64426;SDS011;50772;51.482;-0.580;2022-09-02T06:49:38;4.57;;;3.23;;
64426;SDS011;50772;51.482;-0.580;2022-09-02T06:52:03;5.40;;;3.27;;
64426;SDS011;50772;51.482;-0.580;2022-09-02T06:54:29;3.65;;;3.40;;
64426;SDS011;50772;51.482;-0.580;2022-09-02T06:56:55;6.78;;;3.70;;
64426;SDS011;50772;51.482;-0.580;2022-09-02T06:59:20;6.13;;;3.20;;
64426;SDS011;50772;51.482;-0.580;2022-09-02T07:01:46;8.50;;;3.50;;
64426;SDS011;50772;51.482;-0.580;2022-09-02T07:04:11;8.57;;;3.92;;
64426;SDS011;50772;51.482;-0.580;2022-09-02T07:06:55;3.95;;;3.20;;
64426;SDS011;50772;51.482;-0.580;2022-09-02T07:09:22;3.80;;;3.13;;
64426;SDS011;50772;51.482;-0.580;2022-09-02T07:11:49;4.47;;;3.40;;
64426;SDS011;50772;51.482;-0.580;2022-09-02T07:14:16;4.68;;;3.33;;
64426;SDS011;50772;51.482;-0.580;2022-09-02T07:16:42;4.10;;;3.90;;
64426;SDS011;50772;51.482;-0.580;2022-09-02T07:19:08;7.40;;;3.17;;
64426;SDS011;50772;51.482;-0.580;2022-09-02T07:21:33;4.88;;;3.47;;
64426;SDS011;50772;51.482;-0.580;2022-09-02T07:24:00;8.32;;;3.80;;
64426;SDS011;50772;51.482;-0.580;2022-09-02T07:26:26;3.88;;;3.47;;
64426;SDS011;50772;51.482;-0.580;2022-09-02T07:28:51;7.00;;;3.75;;
64426;SDS011;50772;51.482;-0.580;2022-09-02T07:31:17;12.52;;;3.78;;
64426;SDS011;50772;51.482;-0.580;2022-09-02T07:33:43;5.93;;;3.30;;
64426;SDS011;50772;51.482;-0.580;2022-09-02T07:36:09;4.97;;;3.35;;
64426;SDS011;50772;51.482;-0.580;2022-09-02T07:38:35;9.85;;;4.50;;
64426;SDS011;50772;51.482;-0.580;2022-09-02T07:41:00;4.75;;;3.42;;
64426;SDS011;50772;51.482;-0.580;2022-09-02T07:43:26;10.80;;;3.50;;
64426;SDS011;50772;51.482;-0.580;2022-09-02T07:45:52;6.75;;;3.53;;
64426;SDS011;50772;51.482;-0.580;2022-09-02T07:48:19;6.68;;;4.22;;
64426;SDS011;50772;51.482;-0.580;2022-09-02T07:50:44;7.82;;;3.97;;
64426;SDS011;50772;51.482;-0.580;2022-09-02T07:53:11;9.48;;;4.00;;
64426;SDS011;50772;51.482;-0.580;2022-09-02T07:55:38;5.40;;;4.47;;
64426;SDS011;50772;51.482;-0.580;2022-09-02T07:58:05;5.53;;;4.03;;
64426;SDS011;50772;51.482;-0.580;2022-09-02T08:00:30;10.82;;;3.95;;
64426;SDS011;50772;51.482;-0.580;2022-09-02T08:02:56;11.52;;;4.40;;
64426;SDS011;50772;51.482;-0.580;2022-09-02T08:05:21;5.18;;;4.30;;
64426;SDS011;50772;51.482;-0.580;2022-09-02T08:07:46;7.88;;;4.63;;
64426;SDS011;50772;51.482;-0.580;2022-09-02T08:10:12;4.80;;;4.30;;
64426;SDS011;50772;51.482;-0.580;2022-09-02T08:12:40;4.28;;;3.97;;
64426;SDS011;50772;51.482;-0.580;2022-09-02T08:15:05;11.13;;;4.47;;
64426;SDS011;50772;51.482;-0.580;2022-09-02T08:17:31;8.35;;;4.55;;
64426;SDS011;50772;51.482;-0.580;2022-09-02T08:19:56;7.75;;;4.80;;
64426;SDS011;50772;51.482;-0.580;2022-09-02T08:22:22;12.25;;;5.10;;
64426;SDS011;50772;51.482;-0.580;2022-09-02T08:24:47;7.17;;;4.60;;
64426;SDS011;50772;51.482;-0.580;2022-09-02T08:27:12;5.30;;;4.50;;
64426;SDS011;50772;51.482;-0.580;2022-09-02T08:29:37;6.57;;;4.30;;
64426;SDS011;50772;51.482;-0.580;2022-09-02T08:32:03;8.02;;;4.55;;
64426;SDS011;50772;51.482;-0.580;2022-09-02T08:34:29;4.65;;;3.72;;
64426;SDS011;50772;51.482;-0.580;2022-09-02T08:36:55;6.80;;;4.40;;
64426;SDS011;50772;51.482;-0.580;2022-09-02T08:39:20;8.95;;;5.75;;
64426;SDS011;50772;51.482;-0.580;2022-09-02T08:44:10;7.82;;;4.35;;
64426;SDS011;50772;51.482;-0.580;2022-09-02T08:46:39;8.18;;;4.30;;
64426;SDS011;50772;51.482;-0.580;2022-09-02T08:49:09;7.38;;;4.50;;
64426;SDS011;50772;51.482;-0.580;2022-09-02T08:54:11;7.97;;;4.35;;
64426;SDS011;50772;51.482;-0.580;2022-09-02T08:56:41;8.27;;;4.47;;
64426;SDS011;50772;51.482;-0.580;2022-09-02T08:59:06;5.23;;;4.10;;
64426;SDS011;50772;51.482;-0.580;2022-09-02T09:04:06;8.83;;;4.20;;
64426;SDS011;50772;51.482;-0.580;2022-09-02T09:14:42;7.35;;;4.15;;
64426;SDS011;50772;51.482;-0.580;2022-09-02T09:17:21;4.97;;;3.90;;
64426;SDS011;50772;51.482;-0.580;2022-09-02T09:22:19;9.65;;;4.18;;
64426;SDS011;50772;51.482;-0.580;2022-09-02T09:24:46;4.28;;;3.75;;
64426;SDS011;50772;51.482;-0.580;2022-09-02T09:27:13;10.68;;;4.10;;
64426;SDS011;50772;51.482;-0.580;2022-09-02T09:29:40;6.25;;;3.80;;
64426;SDS011;50772;51.482;-0.580;2022-09-02T09:32:10;4.03;;;3.60;;
64426;SDS011;50772;51.482;-0.580;2022-09-02T09:34:57;6.95;;;4.40;;
64426;SDS011;50772;51.482;-0.580;2022-09-02T09:38:10;11.95;;;4.78;;
64426;SDS011;50772;51.482;-0.580;2022-09-02T09:42:46;5.40;;;3.85;;
64426;SDS011;50772;51.482;-0.580;2022-09-02T09:45:25;4.28;;;3.78;;
64426;SDS011;50772;51.482;-0.580;2022-09-02T09:53:22;4.90;;;3.37;;
64426;SDS011;50772;51.482;-0.580;2022-09-02T09:55:57;3.58;;;3.28;;
64426;SDS011;50772;51.482;-0.580;2022-09-02T09:58:25;6.75;;;4.15;;
64426;SDS011;50772;51.482;-0.580;2022-09-02T10:00:51;4.10;;;3.67;;
64426;SDS011;50772;51.482;-0.580;2022-09-02T10:03:21;5.13;;;3.38;;
64426;SDS011;50772;51.482;-0.580;2022-09-02T10:05:47;5.70;;;3.60;;
64426;SDS011;50772;51.482;-0.580;2022-09-02T10:10:38;9.67;;;3.47;;
64426;SDS011;50772;51.482;-0.580;2022-09-02T10:13:20;3.35;;;3.10;;
64426;SDS011;50772;51.482;-0.580;2022-09-02T10:15:58;6.88;;;3.60;;
64426;SDS011;50772;51.482;-0.580;2022-09-02T10:18:29;7.03;;;3.17;;
64426;SDS011;50772;51.482;-0.580;2022-09-02T10:21:02;8.10;;;3.58;;
64426;SDS011;50772;51.482;-0.580;2022-09-02T10:23:35;4.70;;;3.38;;
64426;SDS011;50772;51.482;-0.580;2022-09-02T10:34:25;4.65;;;3.15;;
64426;SDS011;50772;51.482;-0.580;2022-09-02T10:41:47;4.57;;;2.97;;
64426;SDS011;50772;51.482;-0.580;2022-09-02T10:46:43;7.72;;;2.70;;
64426;SDS011;50772;51.482;-0.580;2022-09-02T10:49:25;3.35;;;3.08;;
64426;SDS011;50772;51.482;-0.580;2022-09-02T10:52:02;3.53;;;2.85;;
64426;SDS011;50772;51.482;-0.580;2022-09-02T10:57:06;3.38;;;2.75;;
64426;SDS011;50772;51.482;-0.580;2022-09-02T10:59:39;3.17;;;2.97;;
64426;SDS011;50772;51.482;-0.580;2022-09-02T11:02:06;3.65;;;3.03;;
64426;SDS011;50772;51.482;-0.580;2022-09-02T11:07:01;7.55;;;3.50;;
64426;SDS011;50772;51.482;-0.580;2022-09-02T11:09:30;3.15;;;2.53;;
64426;SDS011;50772;51.482;-0.580;2022-09-02T11:11:58;5.30;;;3.03;;
64426;SDS011;50772;51.482;-0.580;2022-09-02T11:14:34;3.55;;;3.25;;
64426;SDS011;50772;51.482;-0.580;2022-09-02T11:17:08;6.28;;;2.92;;
64426;SDS011;50772;51.482;-0.580;2022-09-02T11:19:43;3.95;;;3.03;;
64426;SDS011;50772;51.482;-0.580;2022-09-02T11:22:14;5.50;;;3.15;;
64426;SDS011;50772;51.482;-0.580;2022-09-02T11:27:08;7.18;;;3.25;;
64426;SDS011;50772;51.482;-0.580;2022-09-02T11:32:01;6.83;;;3.63;;
64426;SDS011;50772;51.482;-0.580;2022-09-02T11:37:01;3.78;;;3.22;;
64426;SDS011;50772;51.482;-0.580;2022-09-02T11:41:57;5.93;;;3.30;;
64426;SDS011;50772;51.482;-0.580;2022-09-02T11:54:47;8.20;;;3.80;;
64426;SDS011;50772;51.482;-0.580;2022-09-02T11:57:22;5.90;;;2.97;;
64426;SDS011;50772;51.482;-0.580;2022-09-02T12:07:48;10.38;;;3.25;;
64426;SDS011;50772;51.482;-0.580;2022-09-02T12:15:24;4.97;;;3.20;;
64426;SDS011;50772;51.482;-0.580;2022-09-02T12:22:59;4.03;;;3.00;;
64426;SDS011;50772;51.482;-0.580;2022-09-02T12:27:49;4.55;;;3.47;;
64426;SDS011;50772;51.482;-0.580;2022-09-02T12:30:16;6.05;;;3.00;;
64426;SDS011;50772;51.482;-0.580;2022-09-02T12:33:01;3.10;;;2.90;;
64426;SDS011;50772;51.482;-0.580;2022-09-02T12:40:33;9.88;;;3.63;;
64426;SDS011;50772;51.482;-0.580;2022-09-02T12:43:01;3.65;;;3.17;;
64426;SDS011;50772;51.482;-0.580;2022-09-02T12:45:30;3.17;;;2.97;;
64426;SDS011;50772;51.482;-0.580;2022-09-02T12:48:00;6.50;;;3.30;;
64426;SDS011;50772;51.482;-0.580;2022-09-02T12:50:49;3.25;;;2.75;;
64426;SDS011;50772;51.482;-0.580;2022-09-02T12:58:40;5.28;;;2.42;;
64426;SDS011;50772;51.482;-0.580;2022-09-02T13:01:16;3.97;;;3.63;;
64426;SDS011;50772;51.482;-0.580;2022-09-02T13:03:48;7.97;;;2.80;;
64426;SDS011;50772;51.482;-0.580;2022-09-02T13:09:07;4.85;;;2.50;;
64426;SDS011;50772;51.482;-0.580;2022-09-02T13:19:21;2.42;;;2.28;;
64426;SDS011;50772;51.482;-0.580;2022-09-02T13:22:13;5.13;;;2.70;;
64426;SDS011;50772;51.482;-0.580;2022-09-02T13:30:03;4.70;;;2.40;;
64426;SDS011;50772;51.482;-0.580;2022-09-02T13:32:30;3.70;;;2.38;;
64426;SDS011;50772;51.482;-0.580;2022-09-02T13:34:56;4.00;;;2.30;;
64426;SDS011;50772;51.482;-0.580;2022-09-02T13:39:58;2.30;;;2.20;;
64426;SDS011;50772;51.482;-0.580;2022-09-02T13:42:25;2.42;;;2.22;;
64426;SDS011;50772;51.482;-0.580;2022-09-02T13:44:50;2.40;;;2.20;;
64426;SDS011;50772;51.482;-0.580;2022-09-02T13:47:31;2.28;;;2.17;;
64426;SDS011;50772;51.482;-0.580;2022-09-02T13:49:58;2.83;;;2.60;;
64426;SDS011;50772;51.482;-0.580;2022-09-02T13:52:24;2.50;;;2.30;;
64426;SDS011;50772;51.482;-0.580;2022-09-02T13:54:51;2.92;;;2.17;;
64426;SDS011;50772;51.482;-0.580;2022-09-02T13:57:18;2.42;;;2.33;;
64426;SDS011;50772;51.482;-0.580;2022-09-02T13:59:48;4.43;;;2.25;;
64426;SDS011;50772;51.482;-0.580;2022-09-02T14:04:41;6.55;;;2.78;;
64426;SDS011;50772;51.482;-0.580;2022-09-02T14:07:07;2.70;;;2.50;;
64426;SDS011;50772;51.482;-0.580;2022-09-02T14:09:32;4.53;;;2.42;;
64426;SDS011;50772;51.482;-0.580;2022-09-02T14:11:59;5.20;;;2.50;;
64426;SDS011;50772;51.482;-0.580;2022-09-02T14:14:24;2.37;;;2.20;;
64426;SDS011;50772;51.482;-0.580;2022-09-02T14:16:50;6.72;;;2.60;;
64426;SDS011;50772;51.482;-0.580;2022-09-02T14:21:51;4.10;;;3.13;;
64426;SDS011;50772;51.482;-0.580;2022-09-02T14:24:27;3.35;;;2.22;;
64426;SDS011;50772;51.482;-0.580;2022-09-02T14:26:53;2.60;;;2.40;;
64426;SDS011;50772;51.482;-0.580;2022-09-02T14:29:19;2.33;;;2.13;;
64426;SDS011;50772;51.482;-0.580;2022-09-02T14:31:45;5.30;;;2.42;;
64426;SDS011;50772;51.482;-0.580;2022-09-02T14:39:53;4.78;;;2.47;;
64426;SDS011;50772;51.482;-0.580;2022-09-02T14:42:18;2.45;;;2.25;;
64426;SDS011;50772;51.482;-0.580;2022-09-02T14:44:45;3.90;;;2.15;;
64426;SDS011;50772;51.482;-0.580;2022-09-02T14:47:14;3.63;;;2.95;;
64426;SDS011;50772;51.482;-0.580;2022-09-02T14:49:48;2.25;;;2.15;;
64426;SDS011;50772;51.482;-0.580;2022-09-02T14:52:16;5.05;;;2.70;;
64426;SDS011;50772;51.482;-0.580;2022-09-02T14:54:43;2.53;;;2.33;;
64426;SDS011;50772;51.482;-0.580;2022-09-02T14:59:43;3.90;;;2.53;;
64426;SDS011;50772;51.482;-0.580;2022-09-02T15:02:08;2.80;;;2.20;;
64426;SDS011;50772;51.482;-0.580;2022-09-02T15:04:44;2.30;;;1.95;;
64426;SDS011;50772;51.482;-0.580;2022-09-02T15:07:09;2.80;;;2.37;;
64426;SDS011;50772;51.482;-0.580;2022-09-02T15:09:34;6.23;;;2.33;;
64426;SDS011;50772;51.482;-0.580;2022-09-02T15:11:59;2.40;;;2.20;;
64426;SDS011;50772;51.482;-0.580;2022-09-02T15:14:25;4.50;;;2.90;;
64426;SDS011;50772;51.482;-0.580;2022-09-02T15:16:51;3.47;;;3.08;;
64426;SDS011;50772;51.482;-0.580;2022-09-02T15:19:18;4.80;;;2.38;;
64426;SDS011;50772;51.482;-0.580;2022-09-02T15:21:44;2.87;;;2.67;;
64426;SDS011;50772;51.482;-0.580;2022-09-02T15:24:09;2.40;;;2.17;;
64426;SDS011;50772;51.482;-0.580;2022-09-02T15:26:34;3.30;;;2.15;;
64426;SDS011;50772;51.482;-0.580;2022-09-02T15:28:59;5.40;;;2.20;;
64426;SDS011;50772;51.482;-0.580;2022-09-02T15:31:26;3.13;;;2.42;;
64426;SDS011;50772;51.482;-0.580;2022-09-02T15:33:51;2.50;;;2.33;;
64426;SDS011;50772;51.482;-0.580;2022-09-02T15:36:16;2.20;;;2.07;;
64426;SDS011;50772;51.482;-0.580;2022-09-02T15:38:42;2.20;;;2.05;;
64426;SDS011;50772;51.482;-0.580;2022-09-02T15:41:11;4.55;;;2.28;;
64426;SDS011;50772;51.482;-0.580;2022-09-02T15:43:37;4.65;;;2.22;;
64426;SDS011;50772;51.482;-0.580;2022-09-02T15:46:02;3.10;;;2.27;;
64426;SDS011;50772;51.482;-0.580;2022-09-02T15:48:30;4.15;;;2.40;;
64426;SDS011;50772;51.482;-0.580;2022-09-02T15:50:56;3.35;;;2.58;;
64426;SDS011;50772;51.482;-0.580;2022-09-02T15:53:21;4.80;;;3.13;;
64426;SDS011;50772;51.482;-0.580;2022-09-02T15:55:46;2.93;;;2.63;;
64426;SDS011;50772;51.482;-0.580;2022-09-02T15:58:11;2.90;;;2.70;;
64426;SDS011;50772;51.482;-0.580;2022-09-02T16:00:36;3.97;;;2.75;;
64426;SDS011;50772;51.482;-0.580;2022-09-02T16:03:02;3.10;;;2.77;;
64426;SDS011;50772;51.482;-0.580;2022-09-02T16:05:27;4.53;;;2.95;;
64426;SDS011;50772;51.482;-0.580;2022-09-02T16:07:54;2.80;;;2.60;;
64426;SDS011;50772;51.482;-0.580;2022-09-02T16:10:19;3.92;;;2.90;;
64426;SDS011;50772;51.482;-0.580;2022-09-02T16:12:44;3.67;;;2.50;;
64426;SDS011;50772;51.482;-0.580;2022-09-02T16:15:12;3.22;;;2.60;;
64426;SDS011;50772;51.482;-0.580;2022-09-02T16:17:37;2.50;;;2.30;;
64426;SDS011;50772;51.482;-0.580;2022-09-02T16:20:03;6.53;;;2.20;;
64426;SDS011;50772;51.482;-0.580;2022-09-02T16:22:28;3.55;;;2.55;;
64426;SDS011;50772;51.482;-0.580;2022-09-02T16:24:54;3.57;;;2.43;;
64426;SDS011;50772;51.482;-0.580;2022-09-02T16:27:19;3.73;;;2.60;;
64426;SDS011;50772;51.482;-0.580;2022-09-02T16:30:04;2.22;;;2.13;;
64426;SDS011;50772;51.482;-0.580;2022-09-02T16:32:29;3.28;;;2.45;;
64426;SDS011;50772;51.482;-0.580;2022-09-02T16:34:55;4.10;;;2.57;;
64426;SDS011;50772;51.482;-0.580;2022-09-02T16:37:22;2.88;;;2.67;;
64426;SDS011;50772;51.482;-0.580;2022-09-02T16:39:47;3.33;;;2.27;;
64426;SDS011;50772;51.482;-0.580;2022-09-02T16:42:12;2.80;;;2.53;;
64426;SDS011;50772;51.482;-0.580;2022-09-02T16:44:37;7.53;;;2.77;;
64426;SDS011;50772;51.482;-0.580;2022-09-02T16:47:05;2.70;;;2.50;;